Aviation Digital Data Service (ADDS)

Output produced by METARs form (0208 UTC 26 April 2017)
found at http://www.aviationweather.gov/adds/metars/
 
GUCY 260000Z 00000KT CAVOK 27/20 Q1011 NOSIG
TAF GUCY 252300Z 2600/2706 24006KT 9999 FEW015 SCT120 
     BECMG 2604/2608 04004KT 3000 BR FEW016 SCT110 
     TEMPO 2609/2612 5000 HZ NSC